Time,TemperatureF,DewpointF,PressureIn,WindDirection,WindDirectionDegrees,WindSpeedMPH,WindSpeedGustMPH,Humidity,HourlyPrecipIn,Conditions,Clouds,dailyrainin,SoftwareType,DateUTC
2013-10-31 00:00:00,54.2,53.7,29.89,SE,136,0.0,1.0,98,0.07,,,0.01,VWS V14.01,2013-10-31 04:00:00,
2013-10-31 00:01:00,54.2,53.7,29.89,SE,136,0.0,1.0,98,0.07,,,0.01,VWS V14.01,2013-10-31 04:01:00,
2013-10-31 00:02:00,54.2,53.7,29.89,SE,136,0.0,1.0,98,0.07,,,0.01,VWS V14.01,2013-10-31 04:02:00,
2013-10-31 00:07:00,54.2,53.7,29.90,SE,136,0.0,2.0,98,0.13,,,0.07,VWS V14.01,2013-10-31 04:07:00,
2013-10-31 00:12:00,54.4,54.1,29.89,SE,126,0.0,5.0,99,0.17,,,0.11,VWS V14.01,2013-10-31 04:12:00,
2013-10-31 00:17:00,54.5,54.2,29.87,SE,126,0.0,5.0,99,0.18,,,0.12,VWS V14.01,2013-10-31 04:17:00,
2013-10-31 00:22:00,54.5,54.2,29.88,SE,125,0.0,5.0,99,0.20,,,0.14,VWS V14.01,2013-10-31 04:22:00,
2013-10-31 00:27:00,54.5,54.2,29.88,SE,125,0.0,5.0,99,0.21,,,0.15,VWS V14.01,2013-10-31 04:27:00,
2013-10-31 00:32:00,54.6,54.3,29.87,SE,125,0.0,5.0,99,0.23,,,0.17,VWS V14.01,2013-10-31 04:32:00,
2013-10-31 00:37:00,54.7,54.4,29.86,SE,126,0.0,5.0,99,0.25,,,0.19,VWS V14.01,2013-10-31 04:37:00,
2013-10-31 00:42:00,54.8,54.5,29.87,SE,126,0.0,6.0,99,0.27,,,0.21,VWS V14.01,2013-10-31 04:42:00,
2013-10-31 00:47:00,55.0,54.7,29.86,SE,145,0.0,10.0,99,0.31,,,0.25,VWS V14.01,2013-10-31 04:47:00,
2013-10-31 00:52:00,55.1,54.8,29.86,SE,145,1.0,10.0,99,0.35,,,0.29,VWS V14.01,2013-10-31 04:52:00,
2013-10-31 00:57:00,55.3,55.0,29.85,SE,145,0.0,10.0,99,0.37,,,0.31,VWS V14.01,2013-10-31 04:57:00,
2013-10-31 01:00:00,55.3,55.0,29.85,SE,145,1.0,10.0,99,0.37,,,0.31,VWS V14.01,2013-10-31 05:00:00,
2013-10-31 01:02:00,55.3,55.0,29.85,SE,145,1.0,7.0,99,0.32,,,0.32,VWS V14.01,2013-10-31 05:02:00,
2013-10-31 01:07:00,55.4,55.1,29.84,SE,138,0.0,7.0,99,0.32,,,0.32,VWS V14.01,2013-10-31 05:07:00,
2013-10-31 01:12:00,55.4,55.1,29.84,SE,138,0.0,7.0,99,0.33,,,0.33,VWS V14.01,2013-10-31 05:12:00,
2013-10-31 01:17:00,55.3,55.0,29.83,ESE,110,1.0,7.0,99,0.33,,,0.33,VWS V14.01,2013-10-31 05:17:00,
2013-10-31 01:22:00,55.4,55.1,29.83,ESE,121,1.0,8.0,99,0.33,,,0.33,VWS V14.01,2013-10-31 05:22:00,
2013-10-31 01:27:00,55.3,55.0,29.83,ESE,122,1.0,8.0,99,0.33,,,0.33,VWS V14.01,2013-10-31 05:27:00,
2013-10-31 01:32:00,55.3,55.0,29.82,ESE,122,1.0,8.0,99,0.33,,,0.33,VWS V14.01,2013-10-31 05:32:00,
2013-10-31 01:37:00,55.3,55.0,29.82,ESE,122,0.0,8.0,99,0.33,,,0.33,VWS V14.01,2013-10-31 05:37:00,
2013-10-31 01:42:00,55.3,55.0,29.81,ESE,123,0.0,8.0,99,0.33,,,0.33,VWS V14.01,2013-10-31 05:42:00,
2013-10-31 01:47:00,55.4,55.1,29.81,ESE,123,0.0,8.0,99,0.33,,,0.33,VWS V14.01,2013-10-31 05:47:00,
2013-10-31 01:52:00,55.4,55.1,29.80,SE,125,0.0,8.0,99,0.33,,,0.33,VWS V14.01,2013-10-31 05:52:00,
2013-10-31 01:57:00,55.5,55.2,29.80,SE,125,0.0,8.0,99,0.33,,,0.33,VWS V14.01,2013-10-31 05:57:00,
2013-10-31 02:00:00,55.5,55.2,29.79,SE,125,0.0,8.0,99,0.33,,,0.33,VWS V14.01,2013-10-31 06:00:00,
2013-10-31 02:02:00,55.5,55.2,29.79,SE,125,1.0,4.0,99,0.02,,,0.33,VWS V14.01,2013-10-31 06:02:00,
2013-10-31 02:07:00,55.6,55.3,29.79,SE,125,3.0,5.0,99,0.02,,,0.33,VWS V14.01,2013-10-31 06:07:00,
2013-10-31 02:12:00,55.7,55.4,29.79,SE,128,1.0,6.0,99,0.02,,,0.33,VWS V14.01,2013-10-31 06:12:00,
2013-10-31 02:17:00,55.8,55.8,29.79,SE,133,5.0,7.0,100,0.02,,,0.33,VWS V14.01,2013-10-31 06:17:00,
2013-10-31 02:22:00,55.8,55.8,29.79,SE,127,2.0,8.0,100,0.02,,,0.33,VWS V14.01,2013-10-31 06:22:00,
2013-10-31 02:27:00,55.9,55.9,29.79,SE,141,2.0,9.0,100,0.02,,,0.33,VWS V14.01,2013-10-31 06:27:00,
2013-10-31 02:32:00,55.9,55.9,29.79,SE,142,5.0,9.0,100,0.02,,,0.33,VWS V14.01,2013-10-31 06:32:00,
2013-10-31 02:37:00,55.9,55.9,29.78,SE,142,2.0,9.0,100,0.03,,,0.34,VWS V14.01,2013-10-31 06:37:00,
2013-10-31 02:42:00,56.0,56.0,29.78,SE,138,4.0,9.0,100,0.04,,,0.35,VWS V14.01,2013-10-31 06:42:00,
2013-10-31 02:47:00,56.0,56.0,29.77,SE,129,6.0,9.0,100,0.04,,,0.35,VWS V14.01,2013-10-31 06:47:00,
2013-10-31 02:52:00,56.0,56.0,29.77,SE,137,0.0,9.0,100,0.04,,,0.35,VWS V14.01,2013-10-31 06:52:00,
2013-10-31 02:57:00,56.0,56.0,29.76,SE,138,0.0,9.0,100,0.04,,,0.35,VWS V14.01,2013-10-31 06:57:00,
2013-10-31 03:00:00,56.0,56.0,29.76,SE,138,0.0,9.0,100,0.04,,,0.35,VWS V14.01,2013-10-31 07:00:00,
2013-10-31 03:02:00,56.0,56.0,29.76,SE,140,6.0,8.0,100,0.02,,,0.35,VWS V14.01,2013-10-31 07:02:00,
2013-10-31 03:07:00,56.1,56.1,29.75,SE,140,1.0,8.0,100,0.02,,,0.35,VWS V14.01,2013-10-31 07:07:00,
2013-10-31 03:12:00,56.1,56.1,29.75,SE,142,3.0,8.0,100,0.02,,,0.35,VWS V14.01,2013-10-31 07:12:00,
2013-10-31 03:17:00,56.2,56.2,29.75,SE,143,3.0,11.0,100,0.02,,,0.35,VWS V14.01,2013-10-31 07:17:00,
2013-10-31 03:22:00,56.3,56.3,29.74,ESE,119,1.0,11.0,100,0.02,,,0.35,VWS V14.01,2013-10-31 07:22:00,
2013-10-31 03:27:00,56.3,56.3,29.74,SE,126,0.0,11.0,100,0.02,,,0.35,VWS V14.01,2013-10-31 07:27:00,
2013-10-31 03:32:00,56.4,56.4,29.74,SE,125,0.0,11.0,100,0.02,,,0.35,VWS V14.01,2013-10-31 07:32:00,
2013-10-31 03:37:00,56.5,56.5,29.74,SE,126,1.0,11.0,100,0.02,,,0.35,VWS V14.01,2013-10-31 07:37:00,
2013-10-31 03:42:00,56.6,56.6,29.74,SE,126,0.0,11.0,100,0.03,,,0.36,VWS V14.01,2013-10-31 07:42:00,
2013-10-31 03:47:00,56.8,56.8,29.74,SE,125,0.0,11.0,100,0.03,,,0.36,VWS V14.01,2013-10-31 07:47:00,
2013-10-31 03:52:00,57.0,57.0,29.73,SE,126,0.0,11.0,100,0.03,,,0.36,VWS V14.01,2013-10-31 07:52:00,
2013-10-31 03:57:00,57.2,57.2,29.73,SE,126,0.0,11.0,100,0.03,,,0.36,VWS V14.01,2013-10-31 07:57:00,
2013-10-31 04:00:00,57.4,57.4,29.73,SE,126,1.0,11.0,100,0.04,,,0.37,VWS V14.01,2013-10-31 08:00:00,
2013-10-31 04:02:00,57.7,57.7,29.73,SE,126,1.0,3.0,100,0.02,,,0.37,VWS V14.01,2013-10-31 08:02:00,
2013-10-31 04:07:00,58.5,58.5,29.73,SSE,157,0.0,5.0,100,0.02,,,0.37,VWS V14.01,2013-10-31 08:07:00,
2013-10-31 04:12:00,59.0,59.0,29.72,SSE,160,0.0,5.0,100,0.05,,,0.40,VWS V14.01,2013-10-31 08:12:00,
2013-10-31 04:17:00,59.6,59.6,29.71,SSW,209,1.0,9.0,100,0.05,,,0.40,VWS V14.01,2013-10-31 08:17:00,
2013-10-31 04:22:00,60.1,60.1,29.71,SE,134,2.0,9.0,100,0.05,,,0.40,VWS V14.01,2013-10-31 08:22:00,
2013-10-31 04:27:00,60.4,60.4,29.70,South,176,3.0,9.0,100,0.05,,,0.40,VWS V14.01,2013-10-31 08:27:00,
2013-10-31 04:32:00,60.8,60.8,29.70,SSW,213,9.0,10.0,100,0.06,,,0.41,VWS V14.01,2013-10-31 08:32:00,
2013-10-31 04:37:00,61.1,61.1,29.70,SSW,212,6.0,10.0,100,0.06,,,0.41,VWS V14.01,2013-10-31 08:37:00,
2013-10-31 04:42:00,61.3,61.3,29.70,South,173,3.0,11.0,100,0.06,,,0.41,VWS V14.01,2013-10-31 08:42:00,
2013-10-31 04:47:00,61.4,61.4,29.70,SSW,192,8.0,11.0,100,0.06,,,0.41,VWS V14.01,2013-10-31 08:47:00,
2013-10-31 04:52:00,61.6,61.6,29.69,SSW,192,4.0,12.0,100,0.06,,,0.41,VWS V14.01,2013-10-31 08:52:00,
2013-10-31 04:57:00,61.6,61.6,29.69,SSW,204,7.0,12.0,100,0.06,,,0.41,VWS V14.01,2013-10-31 08:57:00,
2013-10-31 05:00:00,61.6,61.6,29.69,SSW,200,2.0,12.0,100,0.06,,,0.41,VWS V14.01,2013-10-31 09:00:00,
2013-10-31 05:02:00,61.6,61.6,29.69,SSW,205,5.0,7.0,100,0.04,,,0.41,VWS V14.01,2013-10-31 09:02:00,
2013-10-31 05:07:00,61.5,61.5,29.69,West,271,3.0,14.0,100,0.04,,,0.41,VWS V14.01,2013-10-31 09:07:00,
2013-10-31 05:12:00,61.4,61.4,29.70,South,188,6.0,14.0,100,0.04,,,0.41,VWS V14.01,2013-10-31 09:12:00,
2013-10-31 05:17:00,61.4,61.4,29.69,SSW,213,4.0,14.0,100,0.04,,,0.41,VWS V14.01,2013-10-31 09:17:00,
2013-10-31 05:22:00,61.4,61.4,29.69,SSW,194,1.0,14.0,100,0.04,,,0.41,VWS V14.01,2013-10-31 09:22:00,
2013-10-31 05:27:00,61.4,61.4,29.69,SW,234,0.0,14.0,100,0.04,,,0.41,VWS V14.01,2013-10-31 09:27:00,
2013-10-31 05:32:00,61.4,61.4,29.69,SSW,205,2.0,14.0,100,0.05,,,0.42,VWS V14.01,2013-10-31 09:32:00,
2013-10-31 05:37:00,61.4,61.4,29.69,South,175,1.0,14.0,100,0.05,,,0.42,VWS V14.01,2013-10-31 09:37:00,
2013-10-31 05:42:00,61.5,61.5,29.69,SSW,202,1.0,14.0,100,0.05,,,0.42,VWS V14.01,2013-10-31 09:42:00,
2013-10-31 05:47:00,61.5,61.5,29.68,SW,227,0.0,14.0,100,0.05,,,0.42,VWS V14.01,2013-10-31 09:47:00,
2013-10-31 05:52:00,61.4,61.4,29.68,SSW,203,2.0,14.0,100,0.05,,,0.42,VWS V14.01,2013-10-31 09:52:00,
2013-10-31 05:57:00,61.4,61.4,29.68,SSW,210,1.0,14.0,100,0.05,,,0.42,VWS V14.01,2013-10-31 09:57:00,
2013-10-31 06:00:00,61.4,61.4,29.68,SSW,209,2.0,14.0,100,0.05,,,0.42,VWS V14.01,2013-10-31 10:00:00,
2013-10-31 06:02:00,61.5,61.5,29.68,SSW,209,5.0,6.0,100,0.01,,,0.42,VWS V14.01,2013-10-31 10:02:00,
2013-10-31 06:07:00,61.5,61.5,29.69,SSW,209,2.0,6.0,100,0.01,,,0.42,VWS V14.01,2013-10-31 10:07:00,
2013-10-31 06:12:00,61.5,61.5,29.69,SSW,206,6.0,8.0,100,0.01,,,0.42,VWS V14.01,2013-10-31 10:12:00,
2013-10-31 06:17:00,61.6,61.6,29.69,South,183,3.0,8.0,100,0.01,,,0.42,VWS V14.01,2013-10-31 10:17:00,
2013-10-31 06:22:00,61.6,61.6,29.69,South,174,0.0,8.0,100,0.01,,,0.42,VWS V14.01,2013-10-31 10:22:00,
2013-10-31 06:27:00,61.6,61.6,29.69,South,183,0.0,8.0,100,0.01,,,0.42,VWS V14.01,2013-10-31 10:27:00,
2013-10-31 06:32:00,61.6,61.6,29.68,South,184,1.0,8.0,100,0.01,,,0.42,VWS V14.01,2013-10-31 10:32:00,
2013-10-31 06:37:00,61.6,61.6,29.68,SSW,196,1.0,8.0,100,0.01,,,0.42,VWS V14.01,2013-10-31 10:37:00,
2013-10-31 06:42:00,61.7,61.7,29.68,South,180,2.0,9.0,100,0.02,,,0.43,VWS V14.01,2013-10-31 10:42:00,
2013-10-31 06:47:00,61.7,61.7,29.69,South,184,0.0,9.0,100,0.02,,,0.43,VWS V14.01,2013-10-31 10:47:00,
2013-10-31 06:52:00,61.7,61.7,29.68,South,185,0.0,9.0,100,0.02,,,0.43,VWS V14.01,2013-10-31 10:52:00,
2013-10-31 06:57:00,61.7,61.7,29.68,South,186,0.0,9.0,100,0.02,,,0.43,VWS V14.01,2013-10-31 10:57:00,
2013-10-31 07:00:00,61.7,61.7,29.68,SSW,196,5.0,9.0,100,0.03,,,0.44,VWS V14.01,2013-10-31 11:00:00,
2013-10-31 07:02:00,61.7,61.7,29.69,SSW,209,4.0,6.0,100,0.02,,,0.44,VWS V14.01,2013-10-31 11:02:00,
2013-10-31 07:07:00,61.6,61.6,29.68,SW,217,0.0,8.0,100,0.02,,,0.44,VWS V14.01,2013-10-31 11:07:00,
2013-10-31 07:12:00,61.6,61.6,29.68,SW,217,2.0,8.0,100,0.02,,,0.44,VWS V14.01,2013-10-31 11:12:00,
2013-10-31 07:17:00,61.5,61.5,29.68,SW,227,1.0,9.0,100,0.02,,,0.44,VWS V14.01,2013-10-31 11:17:00,
2013-10-31 07:22:00,61.4,61.4,29.68,SW,221,3.0,9.0,100,0.02,,,0.44,VWS V14.01,2013-10-31 11:22:00,
2013-10-31 07:27:00,61.4,61.4,29.68,SSW,202,0.0,9.0,100,0.03,,,0.45,VWS V14.01,2013-10-31 11:27:00,
2013-10-31 07:32:00,61.3,61.3,29.68,SW,217,5.0,9.0,100,0.03,,,0.45,VWS V14.01,2013-10-31 11:32:00,
2013-10-31 07:37:00,61.2,61.2,29.67,SW,217,0.0,9.0,100,0.03,,,0.45,VWS V14.01,2013-10-31 11:37:00,
2013-10-31 07:42:00,61.2,61.2,29.67,South,182,1.0,9.0,100,0.03,,,0.45,VWS V14.01,2013-10-31 11:42:00,
2013-10-31 07:47:00,61.2,61.2,29.66,South,182,0.0,9.0,100,0.03,,,0.45,VWS V14.01,2013-10-31 11:47:00,
2013-10-31 07:52:00,61.2,61.2,29.66,SSE,162,0.0,9.0,100,0.04,,,0.46,VWS V14.01,2013-10-31 11:52:00,
2013-10-31 07:57:00,61.2,61.2,29.66,SSW,213,0.0,9.0,100,0.04,,,0.46,VWS V14.01,2013-10-31 11:57:00,
2013-10-31 08:00:00,61.2,61.2,29.65,SSW,213,0.0,9.0,100,0.04,,,0.46,VWS V14.01,2013-10-31 12:00:00,
2013-10-31 08:02:00,61.2,61.2,29.65,SSW,213,0.0,2.0,100,0.02,,,0.46,VWS V14.01,2013-10-31 12:02:00,
2013-10-31 08:07:00,61.1,61.1,29.65,SSW,211,0.0,2.0,100,0.02,,,0.46,VWS V14.01,2013-10-31 12:07:00,
2013-10-31 08:12:00,61.1,61.1,29.65,SSW,211,0.0,2.0,100,0.02,,,0.46,VWS V14.01,2013-10-31 12:12:00,
2013-10-31 08:17:00,61.1,61.1,29.65,SE,130,0.0,6.0,100,0.02,,,0.46,VWS V14.01,2013-10-31 12:17:00,
2013-10-31 08:22:00,61.1,61.1,29.65,SE,130,0.0,6.0,100,0.02,,,0.46,VWS V14.01,2013-10-31 12:22:00,
2013-10-31 08:27:00,61.1,61.1,29.64,SE,130,0.0,7.0,100,0.02,,,0.46,VWS V14.01,2013-10-31 12:27:00,
2013-10-31 08:32:00,61.1,61.1,29.64,SSE,161,6.0,7.0,100,0.02,,,0.46,VWS V14.01,2013-10-31 12:32:00,
2013-10-31 08:37:00,61.1,61.1,29.64,SSE,164,0.0,7.0,100,0.02,,,0.46,VWS V14.01,2013-10-31 12:37:00,
2013-10-31 08:42:00,61.1,61.1,29.64,SE,144,0.0,9.0,100,0.02,,,0.46,VWS V14.01,2013-10-31 12:42:00,
2013-10-31 08:47:00,61.2,61.2,29.64,SSE,157,2.0,10.0,100,0.02,,,0.46,VWS V14.01,2013-10-31 12:47:00,
2013-10-31 08:52:00,61.1,61.1,29.64,SSE,148,0.0,10.0,100,0.03,,,0.47,VWS V14.01,2013-10-31 12:52:00,
2013-10-31 08:57:00,61.1,61.1,29.65,SSW,200,1.0,10.0,100,0.03,,,0.47,VWS V14.01,2013-10-31 12:57:00,
2013-10-31 09:00:00,61.1,61.1,29.64,South,171,0.0,10.0,100,0.03,,,0.47,VWS V14.01,2013-10-31 13:00:00,
2013-10-31 09:02:00,61.0,61.0,29.64,SSW,198,7.0,10.0,100,0.01,,,0.47,VWS V14.01,2013-10-31 13:02:00,
2013-10-31 09:07:00,61.0,61.0,29.64,SW,228,0.0,10.0,100,0.02,,,0.48,VWS V14.01,2013-10-31 13:07:00,
2013-10-31 09:12:00,60.9,60.9,29.64,SSE,157,1.0,10.0,100,0.02,,,0.48,VWS V14.01,2013-10-31 13:12:00,
2013-10-31 09:17:00,60.8,60.8,29.64,SSE,152,0.0,10.0,100,0.02,,,0.48,VWS V14.01,2013-10-31 13:17:00,
2013-10-31 09:22:00,60.8,60.8,29.64,SSW,195,0.0,10.0,100,0.02,,,0.48,VWS V14.01,2013-10-31 13:22:00,
2013-10-31 09:27:00,60.7,60.7,29.64,South,175,9.0,12.0,100,0.02,,,0.48,VWS V14.01,2013-10-31 13:27:00,
2013-10-31 09:32:00,60.7,60.7,29.63,South,190,4.0,12.0,100,0.02,,,0.48,VWS V14.01,2013-10-31 13:32:00,
2013-10-31 09:37:00,60.6,60.6,29.63,SSW,206,8.0,16.0,100,0.02,,,0.48,VWS V14.01,2013-10-31 13:37:00,
2013-10-31 09:42:00,60.5,60.5,29.62,South,188,5.0,16.0,100,0.02,,,0.48,VWS V14.01,2013-10-31 13:42:00,
2013-10-31 09:47:00,60.4,60.4,29.62,SE,146,2.0,16.0,100,0.03,,,0.49,VWS V14.01,2013-10-31 13:47:00,
2013-10-31 09:52:00,60.4,60.4,29.62,NW,315,12.0,16.0,100,0.03,,,0.49,VWS V14.01,2013-10-31 13:52:00,
2013-10-31 09:57:00,60.3,60.3,29.62,SSE,150,7.0,16.0,100,0.03,,,0.49,VWS V14.01,2013-10-31 13:57:00,
2013-10-31 10:00:00,60.3,60.3,29.62,SSW,207,2.0,16.0,100,0.04,,,0.50,VWS V14.01,2013-10-31 14:00:00,
2013-10-31 10:02:00,60.2,60.2,29.63,South,182,5.0,10.0,100,0.03,,,0.50,VWS V14.01,2013-10-31 14:02:00,
2013-10-31 10:07:00,60.1,60.1,29.62,SSW,209,5.0,14.0,100,0.03,,,0.50,VWS V14.01,2013-10-31 14:07:00,
2013-10-31 10:12:00,60.0,60.0,29.62,South,169,2.0,16.0,100,0.03,,,0.50,VWS V14.01,2013-10-31 14:12:00,
2013-10-31 10:17:00,60.0,60.0,29.61,SSE,164,4.0,16.0,100,0.03,,,0.50,VWS V14.01,2013-10-31 14:17:00,
2013-10-31 10:22:00,60.0,59.7,29.61,South,180,6.0,16.0,99,0.03,,,0.50,VWS V14.01,2013-10-31 14:22:00,
2013-10-31 10:27:00,59.9,59.6,29.61,South,185,3.0,16.0,99,0.03,,,0.50,VWS V14.01,2013-10-31 14:27:00,
2013-10-31 10:32:00,59.9,59.6,29.61,SE,140,1.0,16.0,99,0.03,,,0.50,VWS V14.01,2013-10-31 14:32:00,
2013-10-31 10:37:00,59.8,59.5,29.60,SSW,194,4.0,16.0,99,0.04,,,0.51,VWS V14.01,2013-10-31 14:37:00,
2013-10-31 10:42:00,59.8,59.5,29.61,SSW,201,4.0,16.0,99,0.04,,,0.51,VWS V14.01,2013-10-31 14:42:00,
2013-10-31 10:47:00,59.7,59.4,29.60,SSE,163,6.0,16.0,99,0.04,,,0.51,VWS V14.01,2013-10-31 14:47:00,
2013-10-31 10:52:00,59.6,59.3,29.60,South,191,4.0,16.0,99,0.05,,,0.52,VWS V14.01,2013-10-31 14:52:00,
2013-10-31 10:57:00,59.6,59.3,29.60,SSW,207,6.0,16.0,99,0.05,,,0.52,VWS V14.01,2013-10-31 14:57:00,
2013-10-31 11:00:00,59.5,59.2,29.60,South,186,4.0,16.0,99,0.06,,,0.53,VWS V14.01,2013-10-31 15:00:00,
2013-10-31 11:02:00,59.5,59.2,29.60,South,181,4.0,10.0,99,0.03,,,0.53,VWS V14.01,2013-10-31 15:02:00,
2013-10-31 11:07:00,59.4,59.1,29.60,SSW,206,5.0,10.0,99,0.03,,,0.53,VWS V14.01,2013-10-31 15:07:00,
2013-10-31 11:12:00,59.4,59.1,29.60,ESE,119,3.0,10.0,99,0.04,,,0.54,VWS V14.01,2013-10-31 15:12:00,
2013-10-31 11:17:00,59.2,58.9,29.60,South,187,8.0,15.0,99,0.04,,,0.54,VWS V14.01,2013-10-31 15:17:00,
2013-10-31 11:22:00,59.1,58.8,29.59,South,188,6.0,15.0,99,0.04,,,0.54,VWS V14.01,2013-10-31 15:22:00,
2013-10-31 11:27:00,59.0,58.7,29.59,South,184,4.0,15.0,99,0.04,,,0.54,VWS V14.01,2013-10-31 15:27:00,
2013-10-31 11:32:00,59.0,58.7,29.59,SSE,147,7.0,19.0,99,0.05,,,0.55,VWS V14.01,2013-10-31 15:32:00,
2013-10-31 11:37:00,59.0,58.7,29.59,WSW,253,5.0,19.0,99,0.06,,,0.56,VWS V14.01,2013-10-31 15:37:00,
2013-10-31 11:42:00,59.0,58.7,29.58,South,191,2.0,19.0,99,0.06,,,0.56,VWS V14.01,2013-10-31 15:42:00,
2013-10-31 11:47:00,59.0,58.7,29.58,South,184,5.0,19.0,99,0.06,,,0.56,VWS V14.01,2013-10-31 15:47:00,
2013-10-31 11:52:00,59.0,58.7,29.58,SE,130,3.0,19.0,99,0.06,,,0.56,VWS V14.01,2013-10-31 15:52:00,
2013-10-31 11:57:00,59.0,58.7,29.57,SE,140,6.0,19.0,99,0.06,,,0.56,VWS V14.01,2013-10-31 15:57:00,
2013-10-31 12:00:00,59.0,58.7,29.57,WSW,238,6.0,19.0,99,0.06,,,0.56,VWS V14.01,2013-10-31 16:00:00,
2013-10-31 12:02:00,59.0,58.7,29.57,South,190,2.0,13.0,99,0.04,,,0.57,VWS V14.01,2013-10-31 16:02:00,
2013-10-31 12:07:00,59.0,58.7,29.57,SW,214,1.0,13.0,99,0.04,,,0.57,VWS V14.01,2013-10-31 16:07:00,
2013-10-31 12:12:00,59.0,58.7,29.58,South,186,8.0,13.0,99,0.04,,,0.57,VWS V14.01,2013-10-31 16:12:00,
2013-10-31 12:17:00,59.0,58.7,29.57,SW,216,5.0,13.0,99,0.05,,,0.58,VWS V14.01,2013-10-31 16:17:00,
2013-10-31 12:22:00,59.0,58.7,29.57,South,178,14.0,15.0,99,0.05,,,0.58,VWS V14.01,2013-10-31 16:22:00,
2013-10-31 12:27:00,59.0,58.7,29.57,SSW,195,0.0,15.0,99,0.05,,,0.58,VWS V14.01,2013-10-31 16:27:00,
2013-10-31 12:31:00,59.0,58.7,29.57,SSE,156,4.0,15.0,99,0.05,,,0.58,VWS V14.01,2013-10-31 16:31:00,
2013-10-31 12:36:00,59.0,58.7,29.57,South,178,2.0,15.0,99,0.05,,,0.58,VWS V14.01,2013-10-31 16:36:00,
2013-10-31 12:41:00,59.1,58.8,29.56,South,190,4.0,15.0,99,0.05,,,0.58,VWS V14.01,2013-10-31 16:41:00,
2013-10-31 12:47:00,59.2,58.9,29.56,South,184,5.0,15.0,99,0.06,,,0.59,VWS V14.01,2013-10-31 16:47:00,
2013-10-31 12:52:00,59.3,59.0,29.56,South,186,6.0,15.0,99,0.06,,,0.59,VWS V14.01,2013-10-31 16:52:00,
2013-10-31 12:57:00,59.3,59.0,29.56,SW,232,8.0,15.0,99,0.06,,,0.59,VWS V14.01,2013-10-31 16:57:00,
2013-10-31 13:00:00,59.4,59.1,29.56,SSE,155,2.0,15.0,99,0.07,,,0.60,VWS V14.01,2013-10-31 17:00:00,
2013-10-31 13:01:00,59.4,59.1,29.55,SSE,163,5.0,10.0,99,0.04,,,0.60,VWS V14.01,2013-10-31 17:01:00,
2013-10-31 13:07:00,59.4,59.1,29.55,SSW,196,2.0,12.0,99,0.04,,,0.60,VWS V14.01,2013-10-31 17:07:00,
2013-10-31 13:12:00,59.5,59.2,29.55,SW,219,0.0,12.0,99,0.04,,,0.60,VWS V14.01,2013-10-31 17:12:00,
2013-10-31 13:17:00,59.5,59.2,29.54,SSW,192,5.0,12.0,99,0.05,,,0.61,VWS V14.01,2013-10-31 17:17:00,
2013-10-31 13:22:00,59.6,59.3,29.54,SSW,209,1.0,12.0,99,0.06,,,0.62,VWS V14.01,2013-10-31 17:22:00,
2013-10-31 13:27:00,59.6,59.3,29.54,SSW,213,4.0,12.0,99,0.06,,,0.62,VWS V14.01,2013-10-31 17:27:00,
2013-10-31 13:32:00,59.6,59.3,29.54,SW,236,4.0,12.0,99,0.06,,,0.62,VWS V14.01,2013-10-31 17:32:00,
2013-10-31 13:37:00,59.6,59.3,29.53,South,169,1.0,12.0,99,0.06,,,0.62,VWS V14.01,2013-10-31 17:37:00,
2013-10-31 13:42:00,59.6,59.3,29.53,SW,223,0.0,12.0,99,0.06,,,0.62,VWS V14.01,2013-10-31 17:42:00,
2013-10-31 13:47:00,59.7,59.4,29.53,South,186,4.0,12.0,99,0.07,,,0.63,VWS V14.01,2013-10-31 17:47:00,
2013-10-31 13:52:00,59.6,59.3,29.52,South,169,6.0,12.0,99,0.08,,,0.64,VWS V14.01,2013-10-31 17:52:00,
2013-10-31 13:57:00,59.6,59.3,29.52,SSW,207,1.0,12.0,99,0.08,,,0.64,VWS V14.01,2013-10-31 17:57:00,
2013-10-31 14:00:00,59.7,59.4,29.51,SSW,201,2.0,12.0,99,0.08,,,0.64,VWS V14.01,2013-10-31 18:00:00,
2013-10-31 14:02:00,59.7,59.4,29.51,South,190,6.0,11.0,99,0.04,,,0.64,VWS V14.01,2013-10-31 18:02:00,
2013-10-31 14:07:00,59.6,59.3,29.51,South,187,1.0,19.0,99,0.05,,,0.65,VWS V14.01,2013-10-31 18:07:00,
2013-10-31 14:12:00,59.6,59.3,29.51,SSE,160,5.0,19.0,99,0.05,,,0.65,VWS V14.01,2013-10-31 18:12:00,
2013-10-31 14:17:00,59.7,59.4,29.50,SSE,163,7.0,19.0,99,0.05,,,0.65,VWS V14.01,2013-10-31 18:17:00,
2013-10-31 14:22:00,59.7,59.4,29.49,SSW,210,14.0,19.0,99,0.06,,,0.66,VWS V14.01,2013-10-31 18:22:00,
2013-10-31 14:27:00,59.7,59.4,29.49,SSW,192,5.0,19.0,99,0.06,,,0.66,VWS V14.01,2013-10-31 18:27:00,
2013-10-31 14:32:00,59.7,59.4,29.48,SSW,202,7.0,19.0,99,0.06,,,0.66,VWS V14.01,2013-10-31 18:32:00,
2013-10-31 14:37:00,59.6,59.3,29.48,South,190,4.0,19.0,99,0.06,,,0.66,VWS V14.01,2013-10-31 18:37:00,
2013-10-31 14:42:00,59.6,59.3,29.47,South,184,2.0,19.0,99,0.06,,,0.66,VWS V14.01,2013-10-31 18:42:00,
2013-10-31 14:47:00,59.5,59.2,29.47,SSW,208,6.0,19.0,99,0.06,,,0.66,VWS V14.01,2013-10-31 18:47:00,
2013-10-31 14:51:00,59.5,59.2,29.46,South,172,2.0,19.0,99,0.06,,,0.66,VWS V14.01,2013-10-31 18:51:00,
2013-10-31 14:56:00,59.6,59.3,29.46,SSW,199,8.0,19.0,99,0.06,,,0.66,VWS V14.01,2013-10-31 18:56:00,
2013-10-31 15:00:00,59.6,59.3,29.46,SSE,149,4.0,19.0,99,0.06,,,0.66,VWS V14.01,2013-10-31 19:00:00,
2013-10-31 15:01:00,59.6,59.3,29.45,SSW,195,6.0,6.0,99,0.02,,,0.66,VWS V14.01,2013-10-31 19:01:00,
2013-10-31 15:07:00,59.6,59.3,29.44,SE,139,2.0,13.0,99,0.02,,,0.66,VWS V14.01,2013-10-31 19:07:00,
2013-10-31 15:12:00,59.6,59.3,29.44,SW,221,4.0,15.0,99,0.02,,,0.66,VWS V14.01,2013-10-31 19:12:00,
2013-10-31 15:17:00,59.6,59.3,29.44,South,184,4.0,15.0,99,0.03,,,0.67,VWS V14.01,2013-10-31 19:17:00,
2013-10-31 15:22:00,59.6,59.3,29.44,SSW,207,0.0,15.0,99,0.03,,,0.67,VWS V14.01,2013-10-31 19:22:00,
2013-10-31 15:27:00,59.6,59.3,29.43,SW,214,8.0,15.0,99,0.03,,,0.67,VWS V14.01,2013-10-31 19:27:00,
2013-10-31 15:32:00,59.6,59.3,29.43,South,191,5.0,15.0,99,0.04,,,0.68,VWS V14.01,2013-10-31 19:32:00,
2013-10-31 15:36:00,59.6,59.3,29.42,SSW,211,10.0,15.0,99,0.04,,,0.68,VWS V14.01,2013-10-31 19:36:00,
2013-10-31 15:41:00,59.6,59.3,29.42,SE,141,0.0,15.0,99,0.04,,,0.68,VWS V14.01,2013-10-31 19:41:00,
2013-10-31 15:46:00,59.6,59.3,29.42,South,189,0.0,15.0,99,0.04,,,0.68,VWS V14.01,2013-10-31 19:46:00,
2013-10-31 15:51:00,59.5,59.2,29.42,SSW,207,1.0,15.0,99,0.04,,,0.68,VWS V14.01,2013-10-31 19:51:00,
2013-10-31 15:53:00,59.5,59.2,29.42,South,177,0.0,15.0,99,0.05,,,0.69,VWS V14.01,2013-10-31 19:53:00,
2013-10-31 15:58:00,59.5,59.2,29.41,SSE,148,3.0,15.0,99,0.05,,,0.69,VWS V14.01,2013-10-31 19:58:00,
2013-10-31 16:00:00,59.5,59.2,29.41,SSE,160,0.0,15.0,99,0.05,,,0.69,VWS V14.01,2013-10-31 20:00:00,
2013-10-31 16:03:00,59.4,59.1,29.40,SE,128,1.0,5.0,99,0.04,,,0.70,VWS V14.01,2013-10-31 20:03:00,
2013-10-31 16:08:00,59.4,59.1,29.40,SSW,203,3.0,10.0,99,0.04,,,0.70,VWS V14.01,2013-10-31 20:08:00,
2013-10-31 16:13:00,59.3,59.0,29.40,SW,215,4.0,10.0,99,0.05,,,0.71,VWS V14.01,2013-10-31 20:13:00,
2013-10-31 16:18:00,59.2,58.9,29.39,SSE,156,4.0,12.0,99,0.05,,,0.71,VWS V14.01,2013-10-31 20:18:00,
2013-10-31 16:23:00,59.1,58.8,29.39,SE,137,5.0,12.0,99,0.05,,,0.71,VWS V14.01,2013-10-31 20:23:00,
2013-10-31 16:28:00,59.0,58.7,29.38,SSE,165,4.0,12.0,99,0.06,,,0.72,VWS V14.01,2013-10-31 20:28:00,
2013-10-31 16:33:00,59.0,58.7,29.38,South,169,2.0,12.0,99,0.06,,,0.72,VWS V14.01,2013-10-31 20:33:00,
2013-10-31 16:38:00,59.0,58.7,29.38,SE,140,4.0,12.0,99,0.06,,,0.72,VWS V14.01,2013-10-31 20:38:00,
2013-10-31 16:43:00,59.0,58.7,29.37,SE,131,1.0,12.0,99,0.06,,,0.72,VWS V14.01,2013-10-31 20:43:00,
2013-10-31 16:48:00,59.0,58.7,29.37,SSE,162,6.0,12.0,99,0.07,,,0.73,VWS V14.01,2013-10-31 20:48:00,
2013-10-31 16:53:00,59.0,58.7,29.37,SSE,148,3.0,15.0,99,0.07,,,0.73,VWS V14.01,2013-10-31 20:53:00,
2013-10-31 16:58:00,59.0,58.7,29.37,SSE,160,1.0,15.0,99,0.08,,,0.74,VWS V14.01,2013-10-31 20:58:00,
2013-10-31 17:00:00,59.0,58.7,29.37,SSE,161,0.0,15.0,99,0.08,,,0.74,VWS V14.01,2013-10-31 21:00:00,
2013-10-31 17:03:00,59.0,58.7,29.36,SSW,194,4.0,10.0,99,0.05,,,0.74,VWS V14.01,2013-10-31 21:03:00,
2013-10-31 17:08:00,59.0,58.7,29.35,SE,135,3.0,10.0,99,0.05,,,0.74,VWS V14.01,2013-10-31 21:08:00,
2013-10-31 17:13:00,59.0,58.7,29.35,SE,143,6.0,10.0,99,0.05,,,0.74,VWS V14.01,2013-10-31 21:13:00,
2013-10-31 17:18:00,59.0,58.7,29.34,SE,125,2.0,13.0,99,0.05,,,0.74,VWS V14.01,2013-10-31 21:18:00,
2013-10-31 17:23:00,59.0,58.7,29.34,SSE,153,2.0,19.0,99,0.05,,,0.74,VWS V14.01,2013-10-31 21:23:00,
2013-10-31 17:28:00,58.9,58.6,29.34,SSE,155,3.0,19.0,99,0.05,,,0.74,VWS V14.01,2013-10-31 21:28:00,
2013-10-31 17:33:00,58.9,58.6,29.33,SE,143,3.0,19.0,99,0.06,,,0.75,VWS V14.01,2013-10-31 21:33:00,
2013-10-31 17:38:00,58.7,58.4,29.33,SE,138,1.0,19.0,99,0.06,,,0.75,VWS V14.01,2013-10-31 21:38:00,
2013-10-31 17:43:00,58.7,58.4,29.32,SSE,161,4.0,19.0,99,0.06,,,0.75,VWS V14.01,2013-10-31 21:43:00,
2013-10-31 17:48:00,58.6,58.3,29.32,SE,126,10.0,19.0,99,0.06,,,0.75,VWS V14.01,2013-10-31 21:48:00,
2013-10-31 17:53:00,58.6,58.3,29.32,SSW,197,6.0,19.0,99,0.07,,,0.76,VWS V14.01,2013-10-31 21:53:00,
2013-10-31 17:58:00,58.5,58.2,29.31,SSE,167,0.0,19.0,99,0.07,,,0.76,VWS V14.01,2013-10-31 21:58:00,
2013-10-31 18:00:00,58.5,58.2,29.31,SSE,167,1.0,19.0,99,0.07,,,0.76,VWS V14.01,2013-10-31 22:00:00,
2013-10-31 18:03:00,58.5,58.2,29.31,SE,141,2.0,7.0,99,0.02,,,0.76,VWS V14.01,2013-10-31 22:03:00,
2013-10-31 18:08:00,58.4,58.1,29.31,SE,137,4.0,9.0,99,0.02,,,0.76,VWS V14.01,2013-10-31 22:08:00,
2013-10-31 18:13:00,58.4,58.1,29.30,South,188,1.0,12.0,99,0.02,,,0.76,VWS V14.01,2013-10-31 22:13:00,
2013-10-31 18:18:00,58.4,58.1,29.30,South,173,0.0,12.0,99,0.02,,,0.76,VWS V14.01,2013-10-31 22:18:00,
2013-10-31 18:23:00,58.4,58.1,29.29,SSW,205,3.0,12.0,99,0.02,,,0.76,VWS V14.01,2013-10-31 22:23:00,
2013-10-31 18:28:00,58.4,58.4,29.29,SE,145,7.0,12.0,100,0.03,,,0.77,VWS V14.01,2013-10-31 22:28:00,
2013-10-31 18:33:00,58.4,58.1,29.29,South,169,1.0,12.0,99,0.03,,,0.77,VWS V14.01,2013-10-31 22:33:00,
2013-10-31 18:38:00,58.5,58.2,29.28,South,169,3.0,12.0,99,0.03,,,0.77,VWS V14.01,2013-10-31 22:38:00,
2013-10-31 18:43:00,58.5,58.2,29.28,SE,140,2.0,12.0,99,0.03,,,0.77,VWS V14.01,2013-10-31 22:43:00,
2013-10-31 18:48:00,58.5,58.2,29.28,South,175,0.0,12.0,99,0.03,,,0.77,VWS V14.01,2013-10-31 22:48:00,
2013-10-31 18:53:00,58.6,58.6,29.27,SE,126,0.0,12.0,100,0.03,,,0.77,VWS V14.01,2013-10-31 22:53:00,
2013-10-31 18:58:00,58.7,58.7,29.27,South,190,5.0,13.0,100,0.04,,,0.78,VWS V14.01,2013-10-31 22:58:00,
2013-10-31 19:00:00,58.8,58.8,29.27,SSW,200,7.0,13.0,100,0.04,,,0.78,VWS V14.01,2013-10-31 23:00:00,
2013-10-31 19:03:00,58.9,58.9,29.27,SSW,200,1.0,8.0,100,0.02,,,0.78,VWS V14.01,2013-10-31 23:03:00,
2013-10-31 19:08:00,59.0,59.0,29.26,SSW,196,5.0,11.0,100,0.02,,,0.78,VWS V14.01,2013-10-31 23:08:00,
2013-10-31 19:13:00,59.0,59.0,29.26,SSE,163,5.0,12.0,100,0.02,,,0.78,VWS V14.01,2013-10-31 23:13:00,
2013-10-31 19:18:00,59.0,59.0,29.25,South,181,3.0,12.0,100,0.02,,,0.78,VWS V14.01,2013-10-31 23:18:00,
2013-10-31 19:23:00,59.0,59.0,29.25,ESE,118,5.0,15.0,100,0.02,,,0.78,VWS V14.01,2013-10-31 23:23:00,
2013-10-31 19:28:00,59.0,59.0,29.25,South,184,6.0,15.0,100,0.02,,,0.78,VWS V14.01,2013-10-31 23:28:00,
2013-10-31 19:33:00,59.1,59.1,29.25,SSW,202,5.0,15.0,100,0.02,,,0.78,VWS V14.01,2013-10-31 23:33:00,
2013-10-31 19:38:00,59.2,59.2,29.25,South,170,2.0,15.0,100,0.02,,,0.78,VWS V14.01,2013-10-31 23:38:00,
2013-10-31 19:43:00,59.3,59.3,29.24,SSW,203,0.0,15.0,100,0.02,,,0.78,VWS V14.01,2013-10-31 23:43:00,
2013-10-31 19:48:00,59.4,59.4,29.24,South,178,5.0,15.0,100,0.02,,,0.78,VWS V14.01,2013-10-31 23:48:00,
2013-10-31 19:53:00,59.5,59.5,29.24,SE,146,5.0,15.0,100,0.02,,,0.78,VWS V14.01,2013-10-31 23:53:00,
2013-10-31 19:58:00,59.6,59.6,29.23,WSW,241,5.0,15.0,100,0.02,,,0.78,VWS V14.01,2013-10-31 23:58:00,
2013-10-31 20:00:00,59.6,59.6,29.23,SSE,168,1.0,15.0,100,0.02,,,0.78,VWS V14.01,2013-11-01 00:00:00,
2013-10-31 20:03:00,59.6,59.6,29.23,SSW,199,5.0,8.0,100,0.00,,,0.78,VWS V14.01,2013-11-01 00:03:00,
2013-10-31 20:08:00,59.7,59.7,29.23,SSW,196,2.0,9.0,100,0.00,,,0.78,VWS V14.01,2013-11-01 00:08:00,
2013-10-31 20:13:00,59.8,59.8,29.22,SE,140,5.0,14.0,100,0.01,,,0.79,VWS V14.01,2013-11-01 00:13:00,
2013-10-31 20:18:00,59.9,59.9,29.21,SSE,156,0.0,14.0,100,0.01,,,0.79,VWS V14.01,2013-11-01 00:18:00,
2013-10-31 20:23:00,59.9,59.9,29.21,SSW,192,2.0,14.0,100,0.02,,,0.80,VWS V14.01,2013-11-01 00:23:00,
2013-10-31 20:28:00,59.9,59.9,29.20,SSE,152,7.0,14.0,100,0.02,,,0.80,VWS V14.01,2013-11-01 00:28:00,
2013-10-31 20:33:00,60.0,60.0,29.20,South,183,2.0,14.0,100,0.02,,,0.80,VWS V14.01,2013-11-01 00:33:00,
2013-10-31 20:38:00,60.0,60.0,29.20,SSW,198,6.0,14.0,100,0.03,,,0.81,VWS V14.01,2013-11-01 00:38:00,
2013-10-31 20:43:00,60.1,60.1,29.19,South,185,5.0,14.0,100,0.03,,,0.81,VWS V14.01,2013-11-01 00:43:00,
2013-10-31 20:48:00,60.1,60.1,29.19,SSE,148,4.0,14.0,100,0.03,,,0.81,VWS V14.01,2013-11-01 00:48:00,
2013-10-31 20:53:00,60.2,60.2,29.19,SSE,168,6.0,14.0,100,0.03,,,0.81,VWS V14.01,2013-11-01 00:53:00,
2013-10-31 20:58:00,60.3,60.3,29.19,SSE,156,6.0,14.0,100,0.03,,,0.81,VWS V14.01,2013-11-01 00:58:00,
2013-10-31 21:00:00,60.3,60.3,29.19,South,172,2.0,14.0,100,0.03,,,0.81,VWS V14.01,2013-11-01 01:00:00,
2013-10-31 21:03:00,60.3,60.3,29.18,SSE,161,2.0,10.0,100,0.04,,,0.82,VWS V14.01,2013-11-01 01:03:00,
2013-10-31 21:08:00,60.3,60.3,29.17,South,186,4.0,11.0,100,0.04,,,0.82,VWS V14.01,2013-11-01 01:08:00,
2013-10-31 21:13:00,60.3,60.3,29.17,SSW,209,4.0,11.0,100,0.05,,,0.83,VWS V14.01,2013-11-01 01:13:00,
2013-10-31 21:18:00,60.3,60.3,29.17,SW,226,9.0,11.0,100,0.06,,,0.84,VWS V14.01,2013-11-01 01:18:00,
2013-10-31 21:23:00,60.3,60.3,29.17,SSE,160,1.0,11.0,100,0.06,,,0.84,VWS V14.01,2013-11-01 01:23:00,
2013-10-31 21:28:00,60.3,60.3,29.16,South,171,2.0,11.0,100,0.07,,,0.85,VWS V14.01,2013-11-01 01:28:00,
2013-10-31 21:33:00,60.3,60.3,29.16,SE,134,2.0,11.0,100,0.07,,,0.85,VWS V14.01,2013-11-01 01:33:00,
2013-10-31 21:38:00,60.3,60.3,29.15,SSW,203,1.0,11.0,100,0.08,,,0.86,VWS V14.01,2013-11-01 01:38:00,
2013-10-31 21:43:00,60.3,60.3,29.14,SW,221,2.0,11.0,100,0.08,,,0.86,VWS V14.01,2013-11-01 01:43:00,
2013-10-31 21:48:00,60.3,60.3,29.14,SW,215,5.0,11.0,100,0.08,,,0.86,VWS V14.01,2013-11-01 01:48:00,
2013-10-31 21:53:00,60.4,60.4,29.14,SSW,200,0.0,11.0,100,0.08,,,0.86,VWS V14.01,2013-11-01 01:53:00,
2013-10-31 21:58:00,60.3,60.3,29.14,SSW,202,3.0,11.0,100,0.08,,,0.86,VWS V14.01,2013-11-01 01:58:00,
2013-10-31 22:00:00,60.3,60.3,29.14,SSW,202,0.0,11.0,100,0.08,,,0.86,VWS V14.01,2013-11-01 02:00:00,
2013-10-31 22:03:00,60.3,60.3,29.14,SSW,202,1.0,5.0,100,0.05,,,0.86,VWS V14.01,2013-11-01 02:03:00,
2013-10-31 22:08:00,60.3,60.3,29.13,ESE,108,1.0,10.0,100,0.05,,,0.86,VWS V14.01,2013-11-01 02:08:00,
2013-10-31 22:13:00,60.2,60.2,29.12,SE,142,0.0,10.0,100,0.05,,,0.86,VWS V14.01,2013-11-01 02:13:00,
2013-10-31 22:18:00,60.2,60.2,29.12,SSE,153,0.0,10.0,100,0.05,,,0.86,VWS V14.01,2013-11-01 02:18:00,
2013-10-31 22:23:00,60.2,60.2,29.12,South,188,0.0,10.0,100,0.05,,,0.86,VWS V14.01,2013-11-01 02:23:00,
2013-10-31 22:28:00,60.2,60.2,29.11,South,188,0.0,10.0,100,0.06,,,0.87,VWS V14.01,2013-11-01 02:28:00,
2013-10-31 22:33:00,60.2,60.2,29.11,South,191,2.0,10.0,100,0.06,,,0.87,VWS V14.01,2013-11-01 02:33:00,
2013-10-31 22:38:00,60.2,60.2,29.11,SE,142,3.0,10.0,100,0.06,,,0.87,VWS V14.01,2013-11-01 02:38:00,
2013-10-31 22:43:00,60.2,60.2,29.11,SSE,154,0.0,10.0,100,0.06,,,0.87,VWS V14.01,2013-11-01 02:43:00,
2013-10-31 22:48:00,60.3,60.3,29.11,ESE,122,0.0,10.0,100,0.06,,,0.87,VWS V14.01,2013-11-01 02:48:00,
2013-10-31 22:53:00,60.3,60.3,29.12,SSW,204,1.0,10.0,100,0.06,,,0.87,VWS V14.01,2013-11-01 02:53:00,
2013-10-31 22:58:00,60.3,60.3,29.12,SSE,165,2.0,10.0,100,0.06,,,0.87,VWS V14.01,2013-11-01 02:58:00,
2013-10-31 23:00:00,60.3,60.3,29.12,SW,236,2.0,10.0,100,0.06,,,0.87,VWS V14.01,2013-11-01 03:00:00,
2013-10-31 23:03:00,60.4,60.4,29.12,South,175,1.0,7.0,100,0.01,,,0.87,VWS V14.01,2013-11-01 03:03:00,
2013-10-31 23:08:00,60.4,60.4,29.13,SSE,154,1.0,7.0,100,0.01,,,0.87,VWS V14.01,2013-11-01 03:08:00,
2013-10-31 23:13:00,60.4,60.4,29.14,SSW,205,0.0,9.0,100,0.01,,,0.87,VWS V14.01,2013-11-01 03:13:00,
2013-10-31 23:18:00,60.4,60.4,29.12,South,184,0.0,10.0,100,0.02,,,0.88,VWS V14.01,2013-11-01 03:18:00,
2013-10-31 23:23:00,60.4,60.4,29.12,SW,215,2.0,10.0,100,0.02,,,0.88,VWS V14.01,2013-11-01 03:23:00,
2013-10-31 23:28:00,60.3,60.3,29.12,SSW,207,5.0,10.0,100,0.03,,,0.89,VWS V14.01,2013-11-01 03:28:00,
2013-10-31 23:33:00,60.3,60.3,29.13,SW,214,3.0,10.0,100,0.04,,,0.90,VWS V14.01,2013-11-01 03:33:00,
2013-10-31 23:38:00,60.3,60.3,29.12,SSW,212,5.0,10.0,100,0.04,,,0.90,VWS V14.01,2013-11-01 03:38:00,
2013-10-31 23:43:00,60.2,60.2,29.11,SSW,205,6.0,10.0,100,0.05,,,0.91,VWS V14.01,2013-11-01 03:43:00,
2013-10-31 23:48:00,60.2,60.2,29.11,SW,227,1.0,10.0,100,0.05,,,0.91,VWS V14.01,2013-11-01 03:48:00,
2013-10-31 23:53:00,60.1,60.1,29.11,SW,228,0.0,10.0,100,0.05,,,0.91,VWS V14.01,2013-11-01 03:53:00,
2013-10-31 23:58:00,60.1,60.1,29.10,SSW,196,2.0,10.0,100,0.05,,,0.91,VWS V14.01,2013-11-01 03:58:00,